Time;durP1;ratioP1;P1;durP2;ratioP2;P2;SDS_P1;SDS_P2;PMS_P1;PMS_P2;Temp;Humidity;BMP_temperature;BMP_pressure;BME280_temperature;BME280_humidity;BME280_pressure;Samples;Min_cycle;Max_cycle;Signal;HPM_P1;HPM_P2
2022/06/24 00:00:05;;;;;;;6.72;2.40;;;23.10;60.60;;;;;;5051830;28;20528;-85
2022/06/24 00:02:31;;;;;;;6.47;2.60;;;23.10;61.20;;;;;;5052124;28;20076;-85
2022/06/24 00:04:59;;;;;;;6.78;2.60;;;23.00;62.40;;;;;;5052241;28;20044;-85
2022/06/24 00:07:25;;;;;;;6.72;2.70;;;23.00;62.70;;;;;;5052524;28;20080;-84
2022/06/24 00:09:50;;;;;;;7.43;2.65;;;22.90;64.20;;;;;;5052534;28;20068;-85
2022/06/24 00:12:19;;;;;;;7.75;2.75;;;22.90;64.90;;;;;;5051108;28;20041;-84
2022/06/24 00:14:55;;;;;;;6.32;2.60;;;22.80;66.40;;;;;;5057211;28;20032;-85
2022/06/24 00:17:21;;;;;;;7.45;2.60;;;22.70;67.70;;;;;;5056538;28;20078;-85
2022/06/24 00:19:58;;;;;;;7.22;2.80;;;22.60;68.20;;;;;;5039005;28;20040;-84
2022/06/24 00:22:25;;;;;;;6.43;2.58;;;22.60;68.30;;;;;;5056065;28;20098;-84
2022/06/24 00:25:06;;;;;;;8.30;2.70;;;22.50;68.30;;;;;;5039266;28;20105;-85
2022/06/24 00:27:32;;;;;;;8.95;2.90;;;22.50;67.90;;;;;;5056700;28;20375;-84
2022/06/24 00:29:57;;;;;;;7.10;2.78;;;22.40;68.30;;;;;;5055876;28;20512;-84
2022/06/24 00:32:32;;;;;;;8.55;2.90;;;22.40;68.50;;;;;;5054639;28;20041;-84
2022/06/24 00:35:06;;;;;;;11.75;2.88;;;22.40;69.80;;;;;;5056030;28;20036;-84
2022/06/24 00:37:33;;;;;;;10.25;3.00;;;22.40;71.60;;;;;;5056481;28;20041;-84
2022/06/24 00:40:23;;;;;;;9.30;3.00;;;22.30;73.20;;;;;;5038845;28;20033;-84
2022/06/24 00:42:49;;;;;;;6.97;2.80;;;22.30;73.70;;;;;;5054527;28;20086;-85
2022/06/24 00:45:24;;;;;;;8.25;3.00;;;22.20;75.70;;;;;;5039599;28;20044;-84
2022/06/24 00:47:52;;;;;;;7.22;2.85;;;22.20;76.40;;;;;;5055503;28;20044;-87
2022/06/24 00:50:22;;;;;;;9.48;3.17;;;22.10;77.20;;;;;;5056322;28;20409;-85
2022/06/24 00:52:48;;;;;;;6.82;2.85;;;22.20;76.50;;;;;;5054377;28;20044;-84
2022/06/24 00:55:19;;;;;;;10.68;3.20;;;22.10;76.10;;;;;;5051764;28;20051;-84
2022/06/24 00:57:45;;;;;;;9.15;3.10;;;22.10;74.20;;;;;;5038614;28;20047;-84
2022/06/24 01:00:14;;;;;;;7.07;2.92;;;22.10;74.80;;;;;;5054491;28;20040;-84
2022/06/24 01:02:41;;;;;;;9.63;3.20;;;22.10;75.10;;;;;;5033204;28;20052;-84
2022/06/24 01:05:08;;;;;;;8.57;3.00;;;22.10;74.30;;;;;;5052497;28;20060;-84
2022/06/24 01:07:41;;;;;;;11.77;2.97;;;22.10;75.90;;;;;;5052675;28;20044;-84
2022/06/24 01:10:09;;;;;;;11.23;3.22;;;22.00;77.30;;;;;;5055153;28;20041;-84
2022/06/24 01:12:36;;;;;;;10.35;3.45;;;22.00;77.20;;;;;;5054101;28;20043;-84
2022/06/24 01:15:03;;;;;;;7.40;3.22;;;21.90;78.50;;;;;;5055734;28;20055;-84
2022/06/24 01:17:28;;;;;;;9.10;3.20;;;21.90;77.90;;;;;;5055527;28;20041;-84
2022/06/24 01:19:54;;;;;;;9.93;3.40;;;21.80;78.90;;;;;;5054704;28;20383;-84
2022/06/24 01:22:21;;;;;;;9.00;3.22;;;21.80;81.10;;;;;;5055013;28;20549;-84
2022/06/24 01:24:47;;;;;;;7.72;3.50;;;21.70;82.50;;;;;;5053277;28;20559;-83
2022/06/24 01:27:12;;;;;;;13.50;3.80;;;21.60;84.00;;;;;;5055937;28;20032;-85
2022/06/24 01:29:39;;;;;;;8.80;3.65;;;21.50;86.20;;;;;;5055150;28;20438;-85
2022/06/24 01:32:05;;;;;;;17.48;4.65;;;21.40;88.70;;;;;;5037346;28;20561;-84
2022/06/24 01:34:30;;;;;;;11.18;4.10;;;21.30;90.30;;;;;;5054843;28;20124;-84
2022/06/24 01:36:56;;;;;;;15.25;4.50;;;21.20;91.30;;;;;;5055065;28;20464;-84
2022/06/24 01:39:21;;;;;;;11.98;4.38;;;21.10;92.10;;;;;;5037723;28;20040;-84
2022/06/24 01:41:51;;;;;;;10.35;3.78;;;21.00;92.70;;;;;;5054274;28;20032;-84
2022/06/24 01:44:17;;;;;;;9.20;4.00;;;20.90;93.50;;;;;;5054024;28;20641;-84
2022/06/24 01:46:43;;;;;;;7.25;3.65;;;20.80;93.30;;;;;;5055071;28;20087;-84
2022/06/24 01:49:09;;;;;;;13.73;3.65;;;20.80;92.30;;;;;;5053892;28;20040;-84
2022/06/24 01:51:38;;;;;;;8.85;3.83;;;20.70;92.40;;;;;;5054901;28;20095;-84
2022/06/24 01:54:04;;;;;;;8.63;3.80;;;20.70;92.80;;;;;;5054304;28;20036;-84
2022/06/24 01:56:29;;;;;;;8.45;3.80;;;20.70;93.00;;;;;;5054672;28;20094;-84
2022/06/24 01:58:55;;;;;;;7.22;3.53;;;20.60;93.90;;;;;;5054727;28;20059;-84
2022/06/24 02:01:21;;;;;;;7.72;3.78;;;20.60;94.20;;;;;;5054355;28;20039;-84
2022/06/24 02:03:46;;;;;;;6.63;3.60;;;20.60;93.90;;;;;;5052718;28;20074;-84
2022/06/24 02:06:13;;;;;;;8.48;3.40;;;20.60;93.60;;;;;;5054999;28;20041;-84
2022/06/24 02:08:40;;;;;;;7.22;3.60;;;20.60;93.80;;;;;;5054609;28;20505;-83
2022/06/24 02:13:51;;;;;;;6.70;3.35;;;20.50;94.40;;;;;;5054015;28;20048;-83
2022/06/24 02:16:18;;;;;;;7.45;3.33;;;20.50;94.70;;;;;;5053387;28;20044;-84
2022/06/24 02:18:44;;;;;;;6.05;3.05;;;20.50;95.10;;;;;;5038080;28;20081;-84
2022/06/24 02:21:10;;;;;;;8.25;3.28;;;20.50;95.50;;;;;;5053386;28;20029;-84
2022/06/24 02:23:36;;;;;;;6.97;2.90;;;20.60;94.90;;;;;;5053639;28;20174;-84
2022/06/24 02:26:02;;;;;;;10.70;3.40;;;20.60;94.80;;;;;;5054427;28;20402;-83
2022/06/24 02:28:27;;;;;;;6.03;2.80;;;20.60;95.60;;;;;;5053332;28;20047;-83
2022/06/24 02:30:55;;;;;;;7.28;3.30;;;20.60;96.20;;;;;;5054176;28;20401;-84
2022/06/24 02:33:21;;;;;;;8.18;4.15;;;20.60;96.40;;;;;;5036034;28;20041;-83
2022/06/24 02:35:47;;;;;;;6.80;3.75;;;20.60;98.40;;;;;;5053310;28;20051;-83
2022/06/24 02:38:13;;;;;;;7.10;3.63;;;20.40;98.90;;;;;;5053813;28;20075;-83
2022/06/24 02:40:47;;;;;;;9.55;3.90;;;20.40;99.20;;;;;;5052511;28;20032;-84
2022/06/24 02:43:15;;;;;;;7.53;3.90;;;20.40;99.40;;;;;;5036505;28;20032;-84
2022/06/24 02:45:45;;;;;;;8.48;3.50;;;20.40;99.90;;;;;;5053772;28;20146;-84
2022/06/24 02:48:12;;;;;;;7.55;3.35;;;20.40;99.90;;;;;;5037255;28;20116;-83
2022/06/24 02:50:42;;;;;;;8.55;3.78;;;20.40;99.90;;;;;;5053708;28;20464;-83
2022/06/24 02:53:09;;;;;;;8.55;3.30;;;20.40;99.90;;;;;;5052163;28;20041;-84
2022/06/24 02:55:35;;;;;;;7.53;3.05;;;20.40;99.90;;;;;;5053741;28;20467;-84
2022/06/24 02:58:02;;;;;;;7.00;3.75;;;20.40;99.90;;;;;;5053384;28;20506;-83
2022/06/24 03:00:27;;;;;;;7.60;3.60;;;20.40;99.90;;;;;;5052893;28;20032;-83
2022/06/24 03:02:53;;;;;;;7.68;4.40;;;20.40;99.90;;;;;;5052149;28;20036;-83
2022/06/24 03:05:18;;;;;;;7.47;3.65;;;20.40;99.90;;;;;;5053139;28;20044;-84
2022/06/24 03:07:44;;;;;;;8.85;4.38;;;20.30;99.90;;;;;;5053369;28;20040;-83
2022/06/24 03:10:10;;;;;;;8.45;4.50;;;20.30;99.90;;;;;;5052453;28;20125;-83
2022/06/24 03:12:35;;;;;;;7.63;3.80;;;20.30;99.90;;;;;;5052530;28;20063;-83
2022/06/24 03:15:01;;;;;;;8.13;3.67;;;20.30;99.90;;;;;;5036087;28;20410;-84
2022/06/24 03:17:27;;;;;;;9.73;3.75;;;20.30;99.90;;;;;;5053053;28;20055;-83
2022/06/24 03:19:52;;;;;;;8.82;3.78;;;20.30;99.90;;;;;;5052768;28;20033;-83
2022/06/24 03:22:18;;;;;;;7.47;3.20;;;20.40;99.50;;;;;;5052127;28;20032;-84
2022/06/24 03:24:43;;;;;;;6.35;2.97;;;20.40;99.50;;;;;;5052592;28;20036;-84
2022/06/24 03:27:09;;;;;;;7.28;3.10;;;20.40;99.30;;;;;;5052607;28;20042;-84
2022/06/24 03:29:34;;;;;;;9.15;3.50;;;20.50;98.90;;;;;;5052956;28;20040;-84
2022/06/24 03:32:00;;;;;;;10.48;3.50;;;20.50;99.10;;;;;;5035575;28;20105;-84
2022/06/24 03:34:26;;;;;;;6.00;3.05;;;20.50;99.70;;;;;;5052087;28;20084;-83
2022/06/24 03:36:51;;;;;;;7.28;3.00;;;20.50;99.20;;;;;;5036564;28;20098;-84
2022/06/24 03:39:17;;;;;;;7.43;2.90;;;20.50;98.70;;;;;;5051796;28;20091;-84
2022/06/24 03:41:43;;;;;;;7.18;3.25;;;20.50;98.90;;;;;;5052966;28;20489;-84
2022/06/24 03:44:08;;;;;;;6.78;3.22;;;20.50;99.20;;;;;;5050902;28;20789;-83
2022/06/24 03:46:34;;;;;;;7.00;3.05;;;20.60;98.00;;;;;;5052120;28;20041;-84
2022/06/24 03:49:00;;;;;;;8.45;3.00;;;20.60;97.90;;;;;;5052186;28;20048;-84
2022/06/24 03:51:25;;;;;;;9.00;3.42;;;20.60;98.00;;;;;;5036032;28;20398;-84
2022/06/24 03:53:51;;;;;;;6.72;3.00;;;20.60;97.10;;;;;;5051016;28;20036;-83
2022/06/24 03:56:16;;;;;;;8.23;3.70;;;20.60;97.00;;;;;;5036798;28;20131;-83
2022/06/24 03:58:42;;;;;;;7.00;3.47;;;20.60;98.80;;;;;;5052481;28;20044;-84
2022/06/24 04:01:08;;;;;;;8.18;3.90;;;20.60;99.30;;;;;;5052135;28;20557;-84
2022/06/24 04:03:33;;;;;;;7.85;3.70;;;20.60;99.90;;;;;;5049926;28;20094;-84
2022/06/24 04:05:59;;;;;;;10.13;3.63;;;20.60;99.60;;;;;;5051461;28;20040;-84
2022/06/24 04:08:24;;;;;;;7.68;3.20;;;20.60;99.50;;;;;;5051393;28;20123;-84
2022/06/24 04:10:50;;;;;;;8.10;3.92;;;20.60;99.00;;;;;;5033528;28;20033;-84
2022/06/24 04:13:15;;;;;;;8.98;3.80;;;20.60;99.50;;;;;;5051164;28;20044;-84
2022/06/24 04:15:49;;;;;;;7.88;3.70;;;20.50;99.90;;;;;;5049939;28;20059;-83
2022/06/24 04:18:16;;;;;;;8.13;4.20;;;20.60;99.90;;;;;;5035865;28;20441;-84
2022/06/24 04:20:42;;;;;;;7.47;3.92;;;20.50;99.90;;;;;;5051411;28;20549;-83
2022/06/24 04:23:08;;;;;;;8.15;3.92;;;20.60;99.90;;;;;;5033918;28;20111;-83
2022/06/24 04:25:34;;;;;;;7.57;4.00;;;20.60;99.90;;;;;;5035690;28;20123;-83
2022/06/24 04:28:01;;;;;;;9.38;4.22;;;20.60;99.90;;;;;;5035019;28;20036;-84
2022/06/24 04:30:27;;;;;;;9.00;4.30;;;20.60;99.80;;;;;;5051162;28;20460;-84
2022/06/24 04:32:52;;;;;;;9.48;4.68;;;20.60;99.60;;;;;;5035027;28;20097;-84
2022/06/24 04:35:18;;;;;;;10.23;4.85;;;20.60;99.90;;;;;;5034417;28;20045;-83
2022/06/24 04:37:43;;;;;;;10.73;5.15;;;20.60;99.90;;;;;;5052117;28;20037;-83
2022/06/24 04:40:12;;;;;;;10.48;6.40;;;20.60;99.90;;;;;;5050785;28;20524;-83
2022/06/24 04:42:37;;;;;;;10.93;7.40;;;20.60;99.90;;;;;;5034794;28;20041;-83
2022/06/24 04:45:04;;;;;;;12.10;7.20;;;20.60;99.90;;;;;;5034078;28;20033;-83
2022/06/24 04:47:30;;;;;;;11.32;8.18;;;20.60;99.90;;;;;;5051531;28;20521;-83
2022/06/24 04:49:56;;;;;;;12.82;9.35;;;20.60;99.90;;;;;;5051112;28;20131;-83
2022/06/24 04:52:21;;;;;;;14.50;10.05;;;20.70;99.90;;;;;;5050928;28;20039;-83
2022/06/24 04:54:50;;;;;;;14.45;10.50;;;20.70;99.90;;;;;;5050796;28;20037;-83
2022/06/24 04:57:16;;;;;;;14.13;10.77;;;20.70;99.90;;;;;;5051449;28;20363;-83
2022/06/24 04:59:42;;;;;;;13.27;9.70;;;20.80;99.90;;;;;;5034306;28;20561;-83
2022/06/24 05:02:08;;;;;;;12.30;8.43;;;20.80;99.90;;;;;;5054758;28;20082;-83
2022/06/24 05:04:35;;;;;;;14.02;7.60;;;20.80;99.90;;;;;;5037162;28;20029;-83
2022/06/24 05:07:01;;;;;;;12.45;6.65;;;20.80;99.90;;;;;;5038696;28;20066;-83
2022/06/24 05:09:27;;;;;;;9.68;5.72;;;20.90;99.90;;;;;;5054506;28;20055;-84
2022/06/24 05:11:53;;;;;;;11.05;5.63;;;20.90;99.90;;;;;;5055573;28;20048;-83
2022/06/24 05:14:19;;;;;;;11.18;5.10;;;20.90;99.90;;;;;;5053446;28;20123;-83
2022/06/24 05:16:44;;;;;;;9.70;4.93;;;20.90;99.90;;;;;;5053618;28;20041;-83
2022/06/24 05:19:11;;;;;;;10.80;4.80;;;20.90;99.90;;;;;;5054953;28;20118;-83
2022/06/24 05:21:36;;;;;;;10.15;4.85;;;20.90;99.90;;;;;;5053123;28;20037;-83
2022/06/24 05:24:03;;;;;;;11.18;5.15;;;20.80;99.90;;;;;;5053787;28;20059;-83
2022/06/24 05:26:28;;;;;;;8.32;4.50;;;20.80;99.90;;;;;;5054521;28;20505;-83
2022/06/24 05:28:54;;;;;;;9.27;4.93;;;20.80;99.90;;;;;;5037883;28;20044;-82
2022/06/24 05:31:19;;;;;;;10.25;4.88;;;20.70;99.90;;;;;;5038507;28;20047;-83
2022/06/24 05:33:45;;;;;;;10.05;5.25;;;20.80;99.90;;;;;;5053281;28;20543;-83
2022/06/24 05:36:10;;;;;;;11.77;5.40;;;20.70;99.90;;;;;;5054365;28;20044;-84
2022/06/24 05:38:36;;;;;;;11.80;5.07;;;20.80;99.90;;;;;;5054430;28;20047;-83
2022/06/24 05:41:03;;;;;;;10.48;5.45;;;20.70;99.90;;;;;;5053540;28;20044;-83
2022/06/24 05:43:29;;;;;;;9.48;5.20;;;20.80;99.90;;;;;;5037244;28;20176;-83
2022/06/24 05:45:54;;;;;;;8.75;5.43;;;20.80;99.90;;;;;;5036559;28;20490;-83
2022/06/24 05:48:20;;;;;;;9.50;5.30;;;20.80;99.90;;;;;;5054875;28;20041;-83
2022/06/24 05:50:46;;;;;;;9.68;5.68;;;20.70;99.90;;;;;;5037040;28;20044;-83
2022/06/24 05:55:58;;;;;;;8.40;5.60;;;20.80;99.90;;;;;;5054323;28;20040;-83
2022/06/24 05:58:25;;;;;;;9.35;5.57;;;20.80;99.90;;;;;;5053876;28;20040;-83
2022/06/24 06:00:51;;;;;;;9.65;6.18;;;20.80;99.90;;;;;;5051734;28;20037;-84
2022/06/24 06:03:17;;;;;;;11.35;6.25;;;20.80;99.90;;;;;;5033692;28;20044;-84
2022/06/24 06:05:42;;;;;;;9.50;6.20;;;20.80;99.90;;;;;;5044375;28;20036;-84
2022/06/24 06:08:08;;;;;;;9.15;6.10;;;20.80;99.90;;;;;;5072018;28;20067;-84
2022/06/24 06:10:36;;;;;;;10.23;6.10;;;20.90;99.90;;;;;;5052918;28;20074;-84
2022/06/24 06:13:01;;;;;;;10.32;5.97;;;20.90;99.90;;;;;;5037127;28;20048;-84
2022/06/24 06:15:29;;;;;;;9.38;5.90;;;21.00;99.90;;;;;;5036223;28;20040;-83
2022/06/24 06:17:55;;;;;;;12.07;6.40;;;21.00;99.90;;;;;;5053878;28;20032;-83
2022/06/24 06:20:20;;;;;;;9.93;5.57;;;21.10;99.90;;;;;;5036324;28;20029;-83
2022/06/24 06:22:46;;;;;;;9.55;6.00;;;21.10;99.90;;;;;;5052689;28;20394;-84
2022/06/24 06:25:14;;;;;;;9.18;5.75;;;21.10;99.90;;;;;;5053442;28;20048;-83
2022/06/24 06:27:44;;;;;;;9.95;5.88;;;21.10;99.90;;;;;;5071508;28;20036;-83
2022/06/24 06:30:10;;;;;;;10.23;6.43;;;21.10;99.90;;;;;;5053411;28;20040;-83
2022/06/24 06:32:36;;;;;;;9.70;6.30;;;21.10;99.90;;;;;;5052831;28;20078;-83
2022/06/24 06:35:03;;;;;;;10.10;6.32;;;21.20;99.90;;;;;;5052635;28;20067;-83
2022/06/24 06:37:29;;;;;;;8.75;6.10;;;21.20;99.90;;;;;;5036451;28;20043;-83
2022/06/24 06:39:54;;;;;;;10.77;6.78;;;21.20;99.90;;;;;;5053190;28;20119;-83
2022/06/24 06:42:20;;;;;;;10.88;7.10;;;21.30;99.90;;;;;;5053033;28;20040;-82
2022/06/24 06:44:45;;;;;;;9.95;6.53;;;21.30;99.90;;;;;;5052068;28;20443;-83
2022/06/24 06:47:11;;;;;;;10.45;7.10;;;21.30;99.90;;;;;;5053381;28;20490;-83
2022/06/24 06:49:36;;;;;;;10.02;6.50;;;21.30;99.90;;;;;;5051832;28;20051;-84
2022/06/24 06:52:02;;;;;;;10.85;6.53;;;21.30;99.90;;;;;;5031265;28;20126;-83
2022/06/24 06:54:29;;;;;;;10.43;6.72;;;21.30;99.90;;;;;;5043013;28;20037;-83
2022/06/24 06:56:56;;;;;;;11.82;7.38;;;21.30;99.90;;;;;;5056464;28;20048;-83
2022/06/24 06:59:22;;;;;;;9.50;6.28;;;21.30;99.90;;;;;;5046587;28;20076;-83
2022/06/24 07:01:47;;;;;;;9.30;6.43;;;21.30;99.90;;;;;;5031042;28;20433;-83
2022/06/24 07:04:13;;;;;;;10.18;7.15;;;21.30;99.90;;;;;;5051515;28;20123;-83
2022/06/24 07:06:39;;;;;;;10.75;6.90;;;21.30;99.90;;;;;;5052839;28;20052;-83
2022/06/24 07:09:04;;;;;;;11.23;7.90;;;21.30;99.90;;;;;;5035567;28;20482;-83
2022/06/24 07:11:30;;;;;;;11.43;8.05;;;21.30;99.90;;;;;;5052795;28;20036;-83
2022/06/24 07:13:56;;;;;;;11.55;6.85;;;21.40;99.90;;;;;;5034312;28;20040;-83
2022/06/24 07:16:22;;;;;;;11.57;7.68;;;21.40;99.90;;;;;;5052443;28;20079;-83
2022/06/24 07:18:47;;;;;;;10.55;7.88;;;21.40;99.90;;;;;;5036303;28;20067;-83
2022/06/24 07:21:13;;;;;;;10.10;7.93;;;21.40;99.90;;;;;;5051367;28;20036;-83
2022/06/24 07:23:39;;;;;;;11.35;8.30;;;21.30;99.90;;;;;;5052042;28;20481;-83
2022/06/24 07:26:05;;;;;;;13.00;8.82;;;21.30;99.90;;;;;;5034610;28;20714;-84
2022/06/24 07:28:36;;;;;;;10.77;8.90;;;21.30;99.90;;;;;;5035916;28;20044;-83
2022/06/24 07:31:15;;;;;;;11.60;8.98;;;21.30;99.90;;;;;;5051885;28;20052;-83
2022/06/24 07:33:41;;;;;;;11.68;9.27;;;21.30;99.90;;;;;;5036261;28;20093;-83
2022/06/24 07:36:06;;;;;;;12.52;8.43;;;21.30;99.90;;;;;;5051745;28;20036;-83
2022/06/24 07:38:32;;;;;;;11.52;8.82;;;21.30;99.90;;;;;;5052139;28;20040;-83
2022/06/24 07:40:58;;;;;;;10.98;8.93;;;21.30;99.90;;;;;;5052306;28;20123;-83
2022/06/24 07:43:24;;;;;;;11.75;9.60;;;21.30;99.90;;;;;;5050744;28;20107;-83
2022/06/24 07:45:51;;;;;;;12.70;10.50;;;21.30;99.90;;;;;;5052196;28;20405;-83
2022/06/24 07:48:17;;;;;;;13.48;10.65;;;21.20;99.90;;;;;;5051874;28;20058;-83
2022/06/24 07:50:43;;;;;;;11.48;10.27;;;21.10;99.90;;;;;;5052291;28;20047;-83
2022/06/24 07:53:08;;;;;;;12.23;10.55;;;21.00;99.90;;;;;;5052647;28;20444;-83
2022/06/24 07:58:18;;;;;;;13.02;11.52;;;21.10;99.90;;;;;;5060374;28;20469;-83
2022/06/24 08:00:43;;;;;;;14.25;12.00;;;21.10;99.90;;;;;;5059967;28;20477;-84
2022/06/24 08:03:09;;;;;;;13.48;12.07;;;21.10;99.90;;;;;;5060799;28;20175;-84
2022/06/24 08:05:35;;;;;;;11.98;10.55;;;21.10;99.90;;;;;;5060299;28;20032;-84
2022/06/24 08:08:00;;;;;;;14.23;12.27;;;21.20;99.90;;;;;;5061350;28;20529;-84
2022/06/24 08:10:26;;;;;;;14.60;12.52;;;21.20;99.90;;;;;;5044219;28;20025;-84
2022/06/24 08:12:51;;;;;;;14.85;12.88;;;21.20;99.90;;;;;;5062138;28;20587;-83
2022/06/24 08:15:17;;;;;;;14.48;12.40;;;21.20;99.90;;;;;;5055475;28;20501;-83
2022/06/24 08:17:43;;;;;;;16.60;12.95;;;21.20;99.90;;;;;;5049025;28;20493;-84
2022/06/24 08:20:09;;;;;;;14.65;13.10;;;21.20;99.90;;;;;;5034857;28;20044;-84
2022/06/24 08:22:35;;;;;;;15.88;13.15;;;21.20;99.90;;;;;;5051640;28;20115;-84
2022/06/24 08:25:01;;;;;;;14.75;13.27;;;21.20;99.90;;;;;;5033651;28;20166;-83
2022/06/24 08:27:27;;;;;;;13.43;12.00;;;21.20;99.90;;;;;;5051927;28;20537;-84
2022/06/24 08:29:52;;;;;;;15.18;13.68;;;21.30;99.90;;;;;;5052284;28;20036;-84
2022/06/24 08:32:18;;;;;;;15.40;13.80;;;21.30;99.90;;;;;;5034761;28;20111;-84
2022/06/24 08:34:43;;;;;;;15.27;13.65;;;21.30;99.90;;;;;;5037463;28;20036;-84
2022/06/24 08:37:09;;;;;;;15.55;14.05;;;21.30;99.90;;;;;;5054867;28;20032;-84
2022/06/24 08:39:35;;;;;;;16.85;15.07;;;21.30;99.90;;;;;;5038092;28;20044;-84
2022/06/24 08:42:03;;;;;;;15.38;13.88;;;21.30;99.90;;;;;;5056070;28;20044;-84
2022/06/24 08:44:28;;;;;;;17.88;15.07;;;21.30;99.90;;;;;;5055194;28;20436;-84
2022/06/24 08:46:54;;;;;;;15.98;14.27;;;21.30;99.90;;;;;;5038957;28;20035;-84
2022/06/24 08:49:20;;;;;;;15.30;13.80;;;21.30;99.90;;;;;;5038366;28;20086;-84
2022/06/24 08:51:48;;;;;;;17.00;14.77;;;21.20;99.90;;;;;;5056290;28;20083;-84
2022/06/24 08:54:17;;;;;;;16.65;15.05;;;21.20;99.90;;;;;;5039575;28;20040;-84
2022/06/24 08:56:43;;;;;;;16.40;14.70;;;21.20;99.90;;;;;;5054579;28;20071;-84
2022/06/24 08:59:09;;;;;;;15.85;14.25;;;21.20;99.90;;;;;;5049633;28;20037;-84
2022/06/24 09:01:39;;;;;;;15.15;13.65;;;21.10;99.90;;;;;;5055804;28;20032;-84
2022/06/24 09:04:05;;;;;;;16.33;14.70;;;21.10;99.90;;;;;;5037984;28;20074;-84
2022/06/24 09:06:40;;;;;;;16.73;14.93;;;21.10;99.90;;;;;;5055634;28;20068;-83
2022/06/24 09:09:05;;;;;;;15.27;13.68;;;21.10;99.90;;;;;;5052241;28;20082;-84
2022/06/24 09:11:39;;;;;;;16.13;13.98;;;21.10;99.90;;;;;;5054371;28;20519;-84
2022/06/24 09:14:06;;;;;;;14.60;13.07;;;21.10;99.90;;;;;;5038474;28;20032;-84
2022/06/24 09:16:35;;;;;;;15.25;12.80;;;21.10;99.90;;;;;;5053992;28;20036;-84
2022/06/24 09:19:03;;;;;;;14.70;13.20;;;21.10;99.90;;;;;;5038500;28;20044;-84
2022/06/24 09:21:30;;;;;;;14.55;13.05;;;21.00;99.90;;;;;;5054888;28;20071;-84
2022/06/24 09:23:58;;;;;;;16.38;14.77;;;21.00;99.90;;;;;;5054767;28;20127;-84
2022/06/24 09:26:33;;;;;;;15.63;14.02;;;21.00;99.90;;;;;;5037146;28;20549;-83
2022/06/24 09:29:00;;;;;;;15.25;13.75;;;20.90;99.90;;;;;;5054513;28;20113;-84
2022/06/24 09:31:28;;;;;;;13.60;12.20;;;20.90;99.90;;;;;;5054328;28;20055;-84
2022/06/24 09:33:55;;;;;;;10.13;8.40;;;20.80;99.90;;;;;;5054112;28;20387;-83
2022/06/24 09:36:24;;;;;;;7.47;4.43;;;20.70;99.90;;;;;;5037025;28;20036;-83
2022/06/24 09:39:02;;;;;;;7.00;3.80;;;20.50;99.90;;;;;;5053155;28;20059;-82
2022/06/24 09:41:28;;;;;;;7.63;3.90;;;20.40;99.90;;;;;;5036080;28;20040;-83
2022/06/24 09:43:56;;;;;;;5.43;2.50;;;20.40;99.90;;;;;;5054129;28;20147;-83
2022/06/24 09:46:23;;;;;;;4.22;2.00;;;20.30;99.90;;;;;;5070238;28;20043;-83
2022/06/24 09:48:51;;;;;;;5.00;2.10;;;20.20;99.90;;;;;;5038047;28;20036;-83
2022/06/24 09:51:17;;;;;;;6.70;2.50;;;20.10;99.90;;;;;;5037177;28;20033;-82
2022/06/24 09:53:45;;;;;;;5.82;2.70;;;20.00;99.90;;;;;;5054270;28;20090;-82
2022/06/24 09:56:11;;;;;;;5.97;2.90;;;19.90;99.90;;;;;;5053706;28;20443;-83
2022/06/24 09:58:38;;;;;;;7.28;3.17;;;19.90;99.90;;;;;;5036841;28;20051;-83
2022/06/24 10:01:05;;;;;;;7.50;3.20;;;19.80;99.90;;;;;;5054660;28;20040;-83
2022/06/24 10:03:33;;;;;;;8.43;3.60;;;19.70;99.90;;;;;;5053476;28;20054;-83
2022/06/24 10:06:09;;;;;;;6.32;3.28;;;19.70;99.90;;;;;;5053147;28;20166;-83
2022/06/24 10:08:35;;;;;;;7.97;3.25;;;19.70;99.90;;;;;;5054000;28;20051;-84
2022/06/24 10:11:08;;;;;;;6.60;3.20;;;19.60;99.90;;;;;;5035714;28;20040;-84
2022/06/24 10:13:34;;;;;;;6.57;3.25;;;19.60;99.90;;;;;;5037497;28;20075;-83
2022/06/24 10:16:02;;;;;;;7.03;3.40;;;19.70;99.90;;;;;;5052585;28;20517;-83
2022/06/24 10:18:34;;;;;;;7.53;3.55;;;19.70;99.90;;;;;;5053607;28;20398;-84
2022/06/24 10:21:01;;;;;;;8.02;3.78;;;19.70;99.90;;;;;;5036768;28;20036;-84
2022/06/24 10:23:40;;;;;;;6.80;3.55;;;19.70;99.90;;;;;;5037099;28;20032;-84
2022/06/24 10:26:11;;;;;;;7.60;3.63;;;19.70;99.90;;;;;;5035814;28;20409;-83
2022/06/24 10:29:16;;;;;;;6.97;3.70;;;19.70;99.90;;;;;;5053315;28;20040;-83
2022/06/24 10:31:48;;;;;;;8.00;3.92;;;19.70;99.90;;;;;;4991622;28;20057;-84
2022/06/24 10:34:28;;;;;;;7.22;3.95;;;19.70;99.90;;;;;;4992951;28;20434;-84
2022/06/24 10:36:56;;;;;;;7.80;3.80;;;19.70;99.90;;;;;;4976497;28;20045;-84
2022/06/24 10:39:24;;;;;;;7.30;3.80;;;19.70;99.90;;;;;;4991721;28;20141;-84
2022/06/24 10:42:06;;;;;;;8.63;3.83;;;19.70;99.90;;;;;;4977170;28;20042;-84
2022/06/24 10:44:36;;;;;;;6.85;3.42;;;19.70;99.90;;;;;;4990928;28;20049;-84
2022/06/24 10:47:05;;;;;;;7.13;3.92;;;19.60;99.90;;;;;;4991706;28;20536;-84
2022/06/24 10:49:52;;;;;;;7.78;3.35;;;19.60;99.90;;;;;;4991904;28;20038;-84
2022/06/24 10:52:33;;;;;;;7.45;3.60;;;19.60;99.90;;;;;;4992012;28;20049;-83
2022/06/24 10:55:29;;;;;;;6.75;3.50;;;19.60;99.90;;;;;;4992861;28;20049;-84
2022/06/24 10:58:04;;;;;;;7.10;3.20;;;19.60;99.90;;;;;;4988782;28;20053;-83
2022/06/24 11:00:48;;;;;;;6.05;2.90;;;19.60;99.90;;;;;;4992757;28;20053;-84
2022/06/24 11:03:35;;;;;;;6.90;2.90;;;19.70;99.90;;;;;;4975660;28;20094;-84
2022/06/24 11:06:01;;;;;;;8.82;3.40;;;19.70;99.90;;;;;;4992484;28;20125;-84
2022/06/24 11:08:27;;;;;;;6.53;2.88;;;19.80;99.90;;;;;;5052389;28;20036;-84
2022/06/24 11:10:53;;;;;;;6.45;3.10;;;19.90;99.90;;;;;;5035561;28;20032;-84
2022/06/24 11:13:21;;;;;;;6.25;2.78;;;20.00;99.90;;;;;;5035630;28;20040;-84
2022/06/24 11:15:50;;;;;;;8.23;3.90;;;20.10;99.90;;;;;;5052431;28;20055;-84
2022/06/24 11:18:35;;;;;;;6.53;2.97;;;20.20;99.90;;;;;;5052346;28;20044;-84
2022/06/24 11:21:07;;;;;;;6.50;3.25;;;20.30;99.90;;;;;;5035476;28;20063;-85
2022/06/24 11:23:38;;;;;;;7.40;3.53;;;20.50;99.90;;;;;;5036084;28;20581;-84
2022/06/24 11:26:14;;;;;;;7.40;3.38;;;20.70;99.90;;;;;;5051867;28;20135;-84
2022/06/24 11:28:42;;;;;;;7.45;3.55;;;20.90;99.90;;;;;;5027108;28;20036;-85
2022/06/24 11:31:28;;;;;;;8.57;3.90;;;21.00;99.90;;;;;;5034990;28;20044;-85
2022/06/24 11:34:03;;;;;;;8.88;4.30;;;21.20;99.90;;;;;;5035753;28;20448;-84
2022/06/24 11:36:31;;;;;;;9.63;4.80;;;21.20;99.90;;;;;;5036135;28;20131;-84
2022/06/24 11:38:58;;;;;;;9.50;4.55;;;21.20;99.90;;;;;;5051950;28;20051;-84
2022/06/24 11:41:27;;;;;;;9.18;4.70;;;21.10;99.90;;;;;;5036387;28;20060;-84
2022/06/24 11:43:53;;;;;;;8.55;5.18;;;21.10;99.90;;;;;;5036474;28;20029;-84
2022/06/24 11:46:19;;;;;;;7.80;4.75;;;21.20;99.90;;;;;;5048928;28;20044;-84
2022/06/24 11:48:45;;;;;;;8.93;5.25;;;21.20;99.90;;;;;;5035299;28;20052;-84
2022/06/24 11:51:21;;;;;;;9.00;5.10;;;21.30;99.90;;;;;;5052249;28;20048;-84
2022/06/24 11:54:07;;;;;;;8.52;4.82;;;21.30;99.90;;;;;;5052070;28;20040;-84
2022/06/24 11:56:35;;;;;;;8.75;5.50;;;21.30;99.90;;;;;;5052240;28;20079;-84
2022/06/24 11:59:02;;;;;;;7.90;4.93;;;21.30;99.90;;;;;;5034440;28;20428;-84
2022/06/24 12:01:29;;;;;;;9.73;5.80;;;21.30;99.90;;;;;;5052486;28;20222;-84
2022/06/24 12:03:57;;;;;;;9.10;5.28;;;21.30;99.90;;;;;;5052146;28;20029;-84
2022/06/24 12:06:23;;;;;;;9.13;5.40;;;21.20;99.90;;;;;;5034049;28;20036;-84
2022/06/24 12:08:49;;;;;;;9.20;5.50;;;21.20;99.90;;;;;;5053166;28;20094;-84
2022/06/24 12:11:18;;;;;;;9.55;5.90;;;21.30;99.90;;;;;;5055523;28;20043;-84
2022/06/24 12:13:56;;;;;;;9.13;5.88;;;21.40;99.90;;;;;;5056389;28;20083;-84
2022/06/24 12:16:26;;;;;;;10.45;6.28;;;21.40;99.90;;;;;;5055669;28;20047;-84
2022/06/24 12:18:51;;;;;;;8.95;5.93;;;21.40;99.90;;;;;;5055548;28;20509;-84
2022/06/24 12:21:30;;;;;;;9.55;6.40;;;21.40;99.90;;;;;;5055951;28;20044;-84
2022/06/24 12:23:55;;;;;;;9.45;6.40;;;21.50;99.90;;;;;;5039050;28;20037;-84
2022/06/24 12:26:23;;;;;;;9.93;6.85;;;21.50;99.90;;;;;;5038327;28;20723;-84
2022/06/24 12:29:04;;;;;;;8.27;6.32;;;21.60;99.90;;;;;;5054797;28;20068;-84
2022/06/24 12:31:31;;;;;;;10.98;7.63;;;21.70;99.90;;;;;;5039331;28;20041;-84
2022/06/24 12:33:57;;;;;;;9.45;7.43;;;21.70;99.90;;;;;;5039238;28;20029;-84
2022/06/24 12:36:41;;;;;;;10.23;8.55;;;21.80;99.90;;;;;;5055224;28;20037;-83
2022/06/24 12:39:09;;;;;;;10.40;8.38;;;21.80;99.90;;;;;;5054235;28;20044;-84
2022/06/24 12:41:47;;;;;;;9.38;7.93;;;21.90;99.90;;;;;;5039504;28;20040;-84
2022/06/24 12:44:13;;;;;;;10.68;8.07;;;21.90;99.90;;;;;;5039191;28;20041;-84
2022/06/24 12:52:40;;;;;;;11.48;10.27;;;22.20;99.90;;;;;;5055085;28;20036;-84
2022/06/24 12:55:08;;;;;;;11.65;9.50;;;22.20;99.90;;;;;;5054124;28;20129;-84
2022/06/24 12:57:35;;;;;;;10.55;9.02;;;22.30;99.90;;;;;;5036977;28;20036;-84